Time;durP1;ratioP1;P1;durP2;ratioP2;P2;SDS_P1;SDS_P2;PMS_P1;PMS_P2;Temp;Humidity;BMP_temperature;BMP_pressure;BME280_temperature;BME280_humidity;BME280_pressure;Samples;Min_cycle;Max_cycle;Signal;HPM_P1;HPM_P2
2021/12/23 00:01:33;;;;;;;;;;;;;;;-0.13;82.74;101596.84;4984373;28;19961;-73
2021/12/23 00:03:59;;;;;;;;;;;;;;;-0.02;81.44;101594.38;4989395;28;20371;-75
2021/12/23 00:06:24;;;;;;;;;;;;;;;-0.06;82.51;101597.78;4992361;28;19913;-74
2021/12/23 00:08:49;;;;;;;;;;;;;;;-0.11;83.08;101608.06;4992637;28;19975;-73
2021/12/23 00:11:15;;;;;;;;;;;;;;;-0.15;83.27;101590.81;4991920;28;20409;-74
2021/12/23 00:13:48;;;;;;;;;;;;;;;-0.08;82.23;101577.13;4993943;28;19914;-73
2021/12/23 00:16:18;;;;;;;;;;;;;;;-0.07;81.86;101586.59;4991634;28;19917;-75
2021/12/23 00:18:48;;;;;;;;;;;;;;;-0.12;81.50;101608.06;4993577;28;19918;-73
2021/12/23 00:23:57;;;;;;;;;;;;;;;-0.11;81.07;101592.56;4988049;28;19971;-74
2021/12/23 00:26:22;;;;;;;;;;;;;;;-0.10;81.40;101604.66;4988762;28;20631;-74
2021/12/23 00:28:47;;;;;;;;;;;;;;;-0.06;80.96;101602.94;4987813;28;19922;-75
2021/12/23 00:31:14;;;;;;;;;;;;;;;-0.17;80.31;101611.47;4990607;28;19914;-74
2021/12/23 00:33:40;;;;;;;;;;;;;;;-0.22;80.46;101597.63;4987038;28;20401;-73
2021/12/23 00:36:07;;;;;;;;;;;;;;;-0.24;81.32;101601.03;4985511;28;19965;-74
2021/12/23 00:38:37;;;;;;;;;;;;;;;-0.19;80.56;101586.47;4989481;28;19944;-74
2021/12/23 00:41:03;;;;;;;;;;;;;;;-0.20;80.77;101567.53;4983267;28;19983;-73
2021/12/23 00:43:29;;;;;;;;;;;;;;;-0.16;81.23;101546.03;4982568;28;19921;-74
2021/12/23 00:45:55;;;;;;;;;;;;;;;-0.08;80.14;101527.16;4986994;28;19932;-73
2021/12/23 00:48:20;;;;;;;;;;;;;;;-0.03;80.94;101525.50;4984749;28;19929;-73
2021/12/23 00:50:47;;;;;;;;;;;;;;;0.05;79.38;101504.91;4983383;28;19917;-73
2021/12/23 00:53:13;;;;;;;;;;;;;;;-0.13;80.45;101508.19;4986821;28;20550;-74
2021/12/23 00:55:38;;;;;;;;;;;;;;;-0.17;80.13;101526.22;4988369;28;19969;-73
2021/12/23 00:58:03;;;;;;;;;;;;;;;-0.21;80.32;101523.63;4986214;28;20609;-73
2021/12/23 01:00:29;;;;;;;;;;;;;;;-0.17;80.54;101508.16;4989642;28;19957;-76
2021/12/23 01:02:55;;;;;;;;;;;;;;;-0.22;80.86;101503.81;4987909;28;19944;-74
2021/12/23 01:05:21;;;;;;;;;;;;;;;-0.12;80.56;101509.94;4984189;28;19922;-73
2021/12/23 01:07:47;;;;;;;;;;;;;;;-0.19;81.66;101516.75;4988993;28;19918;-73
2021/12/23 01:10:13;;;;;;;;;;;;;;;-0.17;81.22;101515.91;4982698;28;19921;-72
2021/12/23 01:12:45;;;;;;;;;;;;;;;-0.20;81.46;101509.84;4988113;28;19918;-73
2021/12/23 01:20:36;;;;;;;;;;;;;;;-0.12;81.89;101504.75;4987313;28;20486;-73
2021/12/23 01:23:01;;;;;;;;;;;;;;;-0.04;81.38;101487.59;4989277;28;19940;-73
2021/12/23 01:25:27;;;;;;;;;;;;;;;-0.14;81.52;101493.53;4988750;28;20704;-76
2021/12/23 01:27:53;;;;;;;;;;;;;;;-0.16;81.45;101480.59;4971030;28;20300;-75
2021/12/23 01:30:19;;;;;;;;;;;;;;;-0.17;82.00;101477.16;4981899;28;19925;-74
2021/12/23 01:32:45;;;;;;;;;;;;;;;-0.16;82.10;101476.31;4990292;28;19921;-74
2021/12/23 01:35:10;;;;;;;;;;;;;;;-0.08;81.78;101471.22;4987030;28;19921;-75
2021/12/23 01:37:36;;;;;;;;;;;;;;;-0.07;80.79;101460.03;4991640;28;20274;-74
2021/12/23 01:40:01;;;;;;;;;;;;;;;-0.10;81.34;101453.97;4988389;28;19996;-74
2021/12/23 01:42:26;;;;;;;;;;;;;;;-0.08;80.54;101452.25;4988287;28;19920;-74
2021/12/23 01:44:51;;;;;;;;;;;;;;;-0.10;81.20;101444.50;4988465;28;19914;-74
2021/12/23 01:47:17;;;;;;;;;;;;;;;-0.17;81.57;101447.91;4987155;28;20460;-75
2021/12/23 01:49:42;;;;;;;;;;;;;;;-0.22;81.53;101452.16;4989218;28;20311;-74
2021/12/23 01:52:07;;;;;;;;;;;;;;;-0.13;80.80;101451.38;5003103;28;19918;-74
2021/12/23 01:54:33;;;;;;;;;;;;;;;-0.20;82.05;101459.06;4986876;28;19941;-75
2021/12/23 01:56:58;;;;;;;;;;;;;;;-0.25;82.06;101455.59;4987658;28;20370;-75
2021/12/23 01:59:24;;;;;;;;;;;;;;;-0.29;81.50;101448.66;4989488;28;19921;-74
2021/12/23 02:01:49;;;;;;;;;;;;;;;-0.29;81.77;101432.31;4987749;28;19913;-74
2021/12/23 02:04:14;;;;;;;;;;;;;;;-0.27;82.45;101446.09;4988633;28;19972;-74
2021/12/23 02:06:39;;;;;;;;;;;;;;;-0.18;81.52;101434.13;4992306;28;20272;-76
2021/12/23 02:09:05;;;;;;;;;;;;;;;-0.20;81.82;101432.38;4988134;28;19988;-76
2021/12/23 02:11:30;;;;;;;;;;;;;;;-0.13;81.44;101417.81;4988575;28;19956;-74
2021/12/23 02:13:56;;;;;;;;;;;;;;;-0.26;81.93;101438.38;4992864;28;19913;-75
2021/12/23 02:16:21;;;;;;;;;;;;;;;-0.41;82.78;101440.81;4987581;28;20400;-75
2021/12/23 02:18:47;;;;;;;;;;;;;;;-0.42;82.21;101433.91;4990130;28;20000;-75
2021/12/23 02:21:12;;;;;;;;;;;;;;;-0.40;82.50;101442.53;4990090;28;19913;-79
2021/12/23 02:23:38;;;;;;;;;;;;;;;-0.36;82.19;101440.00;4991272;28;19955;-76
2021/12/23 02:26:04;;;;;;;;;;;;;;;-0.27;82.84;101444.38;4989707;28;19917;-74
2021/12/23 02:28:29;;;;;;;;;;;;;;;-0.31;82.17;101445.19;4989058;28;19922;-76
2021/12/23 02:30:54;;;;;;;;;;;;;;;-0.28;82.80;101446.97;4991441;28;19928;-75
2021/12/23 02:33:21;;;;;;;;;;;;;;;-0.35;82.93;101436.56;4990605;28;20608;-74
2021/12/23 02:35:46;;;;;;;;;;;;;;;-0.28;82.09;101427.16;4992744;28;19944;-75
2021/12/23 02:38:12;;;;;;;;;;;;;;;-0.25;81.90;101429.78;4988854;28;19914;-74
2021/12/23 02:40:39;;;;;;;;;;;;;;;-0.34;82.18;101421.97;4990780;28;20359;-74
2021/12/23 02:43:19;;;;;;;;;;;;;;;-0.37;82.54;101406.44;4990608;28;19914;-75
2021/12/23 02:45:46;;;;;;;;;;;;;;;-0.25;82.60;101385.00;4991095;28;20507;-75
2021/12/23 02:48:26;;;;;;;;;;;;;;;-0.30;82.69;101387.53;4989873;28;19944;-76
2021/12/23 02:50:54;;;;;;;;;;;;;;;-0.23;82.75;101360.94;4987863;28;19920;-75
2021/12/23 02:53:20;;;;;;;;;;;;;;;-0.34;82.52;101357.41;4987275;28;20001;-76
2021/12/23 02:55:46;;;;;;;;;;;;;;;-0.31;82.78;101354.84;4989005;28;20084;-75
2021/12/23 02:58:11;;;;;;;;;;;;;;;-0.32;83.29;101359.16;4984335;28;20000;-75
2021/12/23 03:00:38;;;;;;;;;;;;;;;-0.27;83.12;101356.59;4984863;28;19956;-76
2021/12/23 03:03:03;;;;;;;;;;;;;;;-0.38;83.92;101360.81;4990605;28;20463;-75
2021/12/23 03:05:29;;;;;;;;;;;;;;;-0.48;83.44;101371.09;4990369;28;19918;-75
2021/12/23 03:07:54;;;;;;;;;;;;;;;-0.44;84.51;101358.22;4968882;28;19932;-75
2021/12/23 03:13:00;;;;;;;;;;;;;;;-0.54;84.58;101376.19;4990117;28;19918;-75
2021/12/23 03:15:26;;;;;;;;;;;;;;;-0.51;84.05;101386.53;4971324;28;19940;-76
2021/12/23 03:17:51;;;;;;;;;;;;;;;-0.65;85.33;101393.28;4963425;28;19926;-75
2021/12/23 03:20:16;;;;;;;;;;;;;;;-0.67;85.12;101395.03;4986779;28;19914;-75
2021/12/23 03:22:42;;;;;;;;;;;;;;;-0.70;85.04;101406.16;4983878;28;20418;-76
2021/12/23 03:25:07;;;;;;;;;;;;;;;-0.71;85.50;101396.69;4990632;28;19918;-75
2021/12/23 03:27:32;;;;;;;;;;;;;;;-0.79;85.35;101401.81;4991821;28;19993;-75
2021/12/23 03:29:58;;;;;;;;;;;;;;;-0.75;85.45;101409.53;4993580;28;19937;-75
2021/12/23 03:32:23;;;;;;;;;;;;;;;-0.82;86.37;101411.19;4992014;28;19914;-75
2021/12/23 03:34:49;;;;;;;;;;;;;;;-0.80;86.32;101402.66;4996161;28;19956;-76
2021/12/23 03:37:16;;;;;;;;;;;;;;;-0.83;85.95;101406.91;4986843;28;19921;-75
2021/12/23 03:39:41;;;;;;;;;;;;;;;-0.91;86.51;101404.25;4970634;28;19925;-76
2021/12/23 03:42:07;;;;;;;;;;;;;;;-0.93;86.84;101396.47;4992606;28;19917;-75
2021/12/23 03:44:32;;;;;;;;;;;;;;;-0.99;86.91;101395.59;4993745;28;20298;-76
2021/12/23 03:46:57;;;;;;;;;;;;;;;-1.05;87.85;101398.09;4994432;28;19918;-75
2021/12/23 03:49:23;;;;;;;;;;;;;;;-1.07;88.34;101399.78;4993970;28;20017;-76
2021/12/23 03:51:48;;;;;;;;;;;;;;;-0.99;88.23;101395.59;4995375;28;19936;-76
2021/12/23 03:54:13;;;;;;;;;;;;;;;-1.00;88.15;101383.53;4994114;28;19921;-74
2021/12/23 03:56:39;;;;;;;;;;;;;;;-1.04;87.53;101385.19;4996467;28;19918;-75
2021/12/23 03:59:04;;;;;;;;;;;;;;;-1.04;88.22;101382.63;4993704;28;20000;-75
2021/12/23 04:01:30;;;;;;;;;;;;;;;-0.94;87.47;101373.28;4992933;28;19921;-75
2021/12/23 04:03:55;;;;;;;;;;;;;;;-0.97;87.58;101368.06;4995475;28;19913;-75
2021/12/23 04:06:21;;;;;;;;;;;;;;;-1.06;88.97;101368.00;4995399;28;19921;-77
2021/12/23 04:08:47;;;;;;;;;;;;;;;-1.04;89.17;101368.88;4999505;28;20004;-75
2021/12/23 04:11:13;;;;;;;;;;;;;;;-1.03;88.03;101366.28;4993588;28;20306;-75
2021/12/23 04:13:38;;;;;;;;;;;;;;;-1.02;88.60;101377.50;4994479;28;19914;-75
2021/12/23 04:16:04;;;;;;;;;;;;;;;-1.03;88.56;101376.63;4993818;28;19914;-75
2021/12/23 04:18:29;;;;;;;;;;;;;;;-1.04;88.62;101386.94;4989827;28;20363;-76
2021/12/23 04:20:54;;;;;;;;;;;;;;;-1.03;88.73;101398.97;4994010;28;19968;-75
2021/12/23 04:23:21;;;;;;;;;;;;;;;-1.00;89.75;101383.53;4993733;28;19972;-75
2021/12/23 04:25:46;;;;;;;;;;;;;;;-1.05;89.16;101369.72;4991451;28;19948;-76
2021/12/23 04:28:11;;;;;;;;;;;;;;;-1.03;89.50;101362.88;4992051;28;20318;-76
2021/12/23 04:30:37;;;;;;;;;;;;;;;-1.14;89.61;101357.59;4995985;28;19917;-76
2021/12/23 04:33:02;;;;;;;;;;;;;;;-1.06;89.41;101370.56;4993170;28;19969;-75
2021/12/23 04:35:27;;;;;;;;;;;;;;;-1.17;90.10;101361.00;4992078;28;19922;-76
2021/12/23 04:37:53;;;;;;;;;;;;;;;-1.19;90.60;101370.44;4992176;28;19921;-76
2021/12/23 04:40:18;;;;;;;;;;;;;;;-1.12;90.59;101380.00;4993378;28;19996;-74
2021/12/23 04:42:44;;;;;;;;;;;;;;;-1.15;90.77;101379.94;4993895;28;20350;-76
2021/12/23 04:45:09;;;;;;;;;;;;;;;-1.16;91.31;101377.38;4993376;28;19913;-76
2021/12/23 04:47:34;;;;;;;;;;;;;;;-1.11;90.57;101362.78;4995360;28;19929;-76
2021/12/23 04:50:00;;;;;;;;;;;;;;;-1.21;90.89;101363.53;4989187;28;19917;-75
2021/12/23 04:52:26;;;;;;;;;;;;;;;-1.23;91.76;101360.97;4974517;28;20291;-75
2021/12/23 04:54:51;;;;;;;;;;;;;;;-1.22;91.86;101367.84;4993130;28;19914;-74
2021/12/23 04:57:16;;;;;;;;;;;;;;;-1.16;91.28;101361.91;4992788;28;19940;-75
2021/12/23 04:59:42;;;;;;;;;;;;;;;-1.25;92.27;101355.78;4990120;28;19913;-76
2021/12/23 05:02:07;;;;;;;;;;;;;;;-1.16;92.23;101341.28;4992521;28;20706;-75
2021/12/23 05:04:32;;;;;;;;;;;;;;;-1.12;91.62;101315.53;4992944;28;20270;-77
2021/12/23 05:06:57;;;;;;;;;;;;;;;-1.13;92.53;101303.47;4993372;28;20008;-76
2021/12/23 05:09:23;;;;;;;;;;;;;;;-1.02;92.71;101298.41;4991315;28;19921;-76
2021/12/23 05:11:48;;;;;;;;;;;;;;;-1.10;92.22;101285.44;4994847;28;20362;-76
2021/12/23 05:14:13;;;;;;;;;;;;;;;-1.12;92.13;101291.44;4989349;28;19918;-75
2021/12/23 05:16:38;;;;;;;;;;;;;;;-1.05;92.36;101295.81;4991192;28;19920;-76
2021/12/23 05:19:04;;;;;;;;;;;;;;;-1.08;91.88;101308.69;4993461;28;19921;-77
2021/12/23 05:21:29;;;;;;;;;;;;;;;-1.03;92.96;101290.66;4992996;28;19913;-76
2021/12/23 05:23:54;;;;;;;;;;;;;;;-1.02;92.07;101269.19;4993131;28;20713;-75
2021/12/23 05:26:20;;;;;;;;;;;;;;;-1.04;92.86;101284.63;4991934;28;19976;-77
2021/12/23 05:28:45;;;;;;;;;;;;;;;-1.09;92.37;101294.91;4991682;28;20510;-75
2021/12/23 05:31:10;;;;;;;;;;;;;;;-1.13;93.05;101295.75;4992473;28;19985;-76
2021/12/23 05:33:35;;;;;;;;;;;;;;;-1.17;93.25;101299.13;4992860;28;19920;-75
2021/12/23 05:36:02;;;;;;;;;;;;;;;-1.16;93.40;101289.69;4989905;28;19921;-75
2021/12/23 05:38:27;;;;;;;;;;;;;;;-1.17;93.76;101278.50;4992642;28;19914;-75
2021/12/23 05:40:52;;;;;;;;;;;;;;;-1.15;94.00;101265.63;4991002;28;20008;-75
2021/12/23 05:43:17;;;;;;;;;;;;;;;-1.11;93.25;101268.25;4971643;28;20362;-75
2021/12/23 05:45:43;;;;;;;;;;;;;;;-1.13;93.43;101266.50;4991543;28;20016;-76
2021/12/23 05:48:08;;;;;;;;;;;;;;;-1.11;92.85;101265.69;4990624;28;19926;-76
2021/12/23 05:50:34;;;;;;;;;;;;;;;-1.12;93.70;101266.53;4991816;28;19945;-74
2021/12/23 05:52:59;;;;;;;;;;;;;;;-1.12;93.92;101263.97;4991979;28;19917;-76
2021/12/23 05:55:24;;;;;;;;;;;;;;;-1.16;93.61;101271.66;4991779;28;19925;-76
2021/12/23 05:57:50;;;;;;;;;;;;;;;-1.12;93.50;101268.22;4991127;28;19910;-76
2021/12/23 06:00:17;;;;;;;;;;;;;;;-1.17;93.48;101273.34;4990452;28;20394;-76
2021/12/23 06:02:43;;;;;;;;;;;;;;;-1.16;93.54;101277.66;4993485;28;20286;-75
2021/12/23 06:05:08;;;;;;;;;;;;;;;-1.03;92.99;101267.44;4988386;28;19918;-75
2021/12/23 06:07:33;;;;;;;;;;;;;;;-1.06;93.44;101264.84;4991808;28;19971;-75
2021/12/23 06:09:59;;;;;;;;;;;;;;;-1.04;93.75;101268.31;4991888;28;19981;-75
2021/12/23 06:12:24;;;;;;;;;;;;;;;-1.07;93.69;101278.59;4986117;28;19913;-74
2021/12/23 06:14:50;;;;;;;;;;;;;;;-1.12;94.67;101271.69;4987082;28;19925;-76
2021/12/23 06:17:15;;;;;;;;;;;;;;;-1.10;94.04;101258.81;4970304;28;19926;-76
2021/12/23 06:19:40;;;;;;;;;;;;;;;-1.09;95.02;101271.69;4990073;28;19921;-76
2021/12/23 06:22:05;;;;;;;;;;;;;;;-1.07;95.15;101270.84;4988044;28;19925;-76
2021/12/23 06:24:31;;;;;;;;;;;;;;;-1.13;95.80;101275.13;4991826;28;19940;-75
2021/12/23 06:26:56;;;;;;;;;;;;;;;-1.08;95.74;101275.16;4988296;28;19926;-74
2021/12/23 06:29:22;;;;;;;;;;;;;;;-1.09;95.75;101274.28;4984702;28;19921;-75
2021/12/23 06:31:47;;;;;;;;;;;;;;;-1.00;96.10;101255.44;4991568;28;19920;-76
2021/12/23 06:34:12;;;;;;;;;;;;;;;-0.98;96.63;101258.03;4991029;28;19996;-76
2021/12/23 06:36:38;;;;;;;;;;;;;;;-0.95;95.93;101247.75;4988471;28;19918;-74
2021/12/23 06:39:04;;;;;;;;;;;;;;;-0.99;96.39;101246.00;4991914;28;19925;-74
2021/12/23 06:41:30;;;;;;;;;;;;;;;-1.00;96.69;101245.13;4996312;28;19921;-75
2021/12/23 06:43:55;;;;;;;;;;;;;;;-0.96;96.18;101241.72;4990966;28;19921;-75
2021/12/23 06:46:20;;;;;;;;;;;;;;;-0.89;96.16;101232.31;4990362;28;19918;-75
2021/12/23 06:48:45;;;;;;;;;;;;;;;-0.85;96.70;101233.19;4973085;28;19948;-75
2021/12/23 06:51:11;;;;;;;;;;;;;;;-0.73;95.90;101204.03;4991833;28;19917;-74
2021/12/23 06:53:36;;;;;;;;;;;;;;;-0.89;96.37;101201.38;4983299;28;19917;-75
2021/12/23 06:56:02;;;;;;;;;;;;;;;-0.95;96.17;101197.03;4990142;28;19972;-75
2021/12/23 06:58:27;;;;;;;;;;;;;;;-1.00;96.63;101196.13;4991667;28;19918;-74
2021/12/23 07:00:53;;;;;;;;;;;;;;;-1.09;97.00;101193.50;4988637;28;19941;-74
2021/12/23 07:03:19;;;;;;;;;;;;;;;-0.99;98.06;101197.84;4988849;28;19918;-74
2021/12/23 07:05:44;;;;;;;;;;;;;;;-0.89;96.87;101195.34;4989073;28;20389;-75
2021/12/23 07:08:28;;;;;;;;;;;;;;;-0.89;97.14;101185.00;5004499;28;19922;-74
2021/12/23 07:10:53;;;;;;;;;;;;;;;-0.83;97.31;101180.75;4986982;28;20329;-75
2021/12/23 07:13:18;;;;;;;;;;;;;;;-0.89;98.44;101175.56;5005315;28;19952;-75
2021/12/23 07:15:44;;;;;;;;;;;;;;;-0.90;97.83;101172.97;4991260;28;20374;-75
2021/12/23 07:18:09;;;;;;;;;;;;;;;-0.99;98.69;101189.28;4990511;28;19959;-75
2021/12/23 07:20:34;;;;;;;;;;;;;;;-0.95;98.20;101185.84;4989139;28;19913;-75
2021/12/23 07:23:00;;;;;;;;;;;;;;;-0.95;98.92;101188.41;4990795;28;19925;-75
2021/12/23 07:25:26;;;;;;;;;;;;;;;-0.93;98.73;101182.41;4990410;28;20354;-75
2021/12/23 07:27:51;;;;;;;;;;;;;;;-0.87;98.61;101185.91;4988848;28;20423;-75
2021/12/23 07:30:18;;;;;;;;;;;;;;;-0.81;98.59;101178.19;4990209;28;20040;-75
2021/12/23 07:32:44;;;;;;;;;;;;;;;-0.87;98.78;101184.16;4992381;28;19913;-75
2021/12/23 07:35:09;;;;;;;;;;;;;;;-0.90;98.39;101186.75;4990256;28;19921;-75
2021/12/23 07:37:35;;;;;;;;;;;;;;;-0.99;98.89;101194.44;4992730;28;19917;-75
2021/12/23 07:40:01;;;;;;;;;;;;;;;-1.03;99.70;101202.97;4972874;28;19976;-75
2021/12/23 07:42:28;;;;;;;;;;;;;;;-1.09;100.00;101198.66;4991258;28;20358;-75
2021/12/23 07:44:54;;;;;;;;;;;;;;;-1.15;100.00;101204.63;4990715;28;20358;-75
2021/12/23 07:47:19;;;;;;;;;;;;;;;-1.14;100.00;101205.47;4972072;28;19951;-76
2021/12/23 07:49:45;;;;;;;;;;;;;;;-1.10;100.00;101192.63;4992487;28;19913;-74
2021/12/23 07:52:10;;;;;;;;;;;;;;;-1.05;100.00;101184.06;4971439;28;19921;-75
2021/12/23 07:54:36;;;;;;;;;;;;;;;-1.02;100.00;101186.66;4986116;28;19957;-75
2021/12/23 07:57:01;;;;;;;;;;;;;;;-1.04;100.00;101188.38;4989785;28;19921;-75
2021/12/23 07:59:28;;;;;;;;;;;;;;;-0.93;100.00;101169.50;4983230;28;19921;-75
2021/12/23 08:01:53;;;;;;;;;;;;;;;-1.02;100.00;101178.94;4987122;28;20028;-74
2021/12/23 08:04:18;;;;;;;;;;;;;;;-0.97;100.00;101179.81;4986437;28;20005;-75
2021/12/23 08:06:47;;;;;;;;;;;;;;;-1.01;100.00;101175.50;4987050;28;19918;-74
2021/12/23 08:09:12;;;;;;;;;;;;;;;-0.90;100.00;101167.81;4984126;28;19924;-74
2021/12/23 08:11:37;;;;;;;;;;;;;;;-0.93;100.00;101158.34;4990301;28;20001;-75
2021/12/23 08:14:02;;;;;;;;;;;;;;;-0.85;100.00;101156.66;4996934;28;19922;-75
2021/12/23 08:16:28;;;;;;;;;;;;;;;-0.80;100.00;101152.41;4996164;28;20429;-74
2021/12/23 08:18:53;;;;;;;;;;;;;;;-0.79;100.00;101151.56;4993065;28;19914;-74
2021/12/23 08:21:18;;;;;;;;;;;;;;;-0.84;100.00;101147.22;4993140;28;19925;-74
2021/12/23 08:23:45;;;;;;;;;;;;;;;-0.99;100.00;101145.44;4976307;28;20020;-75
2021/12/23 08:26:15;;;;;;;;;;;;;;;-1.03;100.00;101151.41;4993492;28;19984;-74
2021/12/23 08:28:41;;;;;;;;;;;;;;;-0.98;100.00;101139.38;4997455;28;19918;-76
2021/12/23 08:31:06;;;;;;;;;;;;;;;-0.98;100.00;101136.81;4993083;28;19922;-75
2021/12/23 08:33:31;;;;;;;;;;;;;;;-0.97;100.00;101112.75;4993339;28;20359;-76
2021/12/23 08:35:57;;;;;;;;;;;;;;;-0.95;100.00;101113.63;4992543;28;20333;-76
2021/12/23 08:38:22;;;;;;;;;;;;;;;-0.94;100.00;101102.47;4988831;28;19920;-75
2021/12/23 08:40:47;;;;;;;;;;;;;;;-0.85;100.00;101094.75;4995355;28;19913;-74
2021/12/23 08:43:13;;;;;;;;;;;;;;;-0.82;100.00;101099.94;4993383;28;20354;-75
2021/12/23 08:45:44;;;;;;;;;;;;;;;-0.94;100.00;101102.47;4993699;28;20322;-76
2021/12/23 08:48:10;;;;;;;;;;;;;;;-0.95;100.00;101077.53;4966350;28;19952;-76
2021/12/23 08:50:35;;;;;;;;;;;;;;;-0.98;100.00;101111.03;4993280;28;19952;-75
2021/12/23 08:53:00;;;;;;;;;;;;;;;-0.97;100.00;101084.38;5006033;28;20461;-75
2021/12/23 08:55:27;;;;;;;;;;;;;;;-0.90;100.00;101081.00;4991766;28;19929;-74
2021/12/23 08:57:53;;;;;;;;;;;;;;;-0.98;100.00;101075.78;5000436;28;19917;-77
2021/12/23 09:00:18;;;;;;;;;;;;;;;-1.00;100.00;101077.50;4989549;28;19917;-76
2021/12/23 09:02:44;;;;;;;;;;;;;;;-0.93;100.00;101068.06;4994706;28;19914;-74
2021/12/23 09:05:10;;;;;;;;;;;;;;;-0.92;100.00;101062.06;4990426;28;19925;-74
2021/12/23 09:07:35;;;;;;;;;;;;;;;-0.99;100.00;101044.84;4992860;28;19940;-74
2021/12/23 09:10:00;;;;;;;;;;;;;;;-0.91;100.00;101030.25;4992651;28;19913;-73
2021/12/23 09:12:26;;;;;;;;;;;;;;;-0.82;100.00;101029.41;4987697;28;19918;-75
2021/12/23 09:14:52;;;;;;;;;;;;;;;-0.81;100.00;101038.88;4992969;28;19914;-75
2021/12/23 09:17:17;;;;;;;;;;;;;;;-0.81;100.00;101044.91;4990182;28;19913;-73
2021/12/23 09:19:43;;;;;;;;;;;;;;;-0.63;100.00;101025.19;4989556;28;20370;-75
2021/12/23 09:22:09;;;;;;;;;;;;;;;-0.70;100.00;101016.56;4989704;28;19917;-74
2021/12/23 09:24:37;;;;;;;;;;;;;;;-0.73;100.00;101013.13;4987179;28;20480;-74
2021/12/23 09:27:16;;;;;;;;;;;;;;;-0.82;100.00;101032.00;4988936;28;20355;-75
2021/12/23 09:35:03;;;;;;;;;;;;;;;-0.70;100.00;101031.19;4986902;28;20286;-75
2021/12/23 09:37:29;;;;;;;;;;;;;;;-0.67;100.00;101036.38;4975051;28;20016;-78
2021/12/23 09:39:57;;;;;;;;;;;;;;;-0.64;100.00;101026.91;4974022;28;19921;-76
2021/12/23 09:42:24;;;;;;;;;;;;;;;-0.65;100.00;101019.16;4991253;28;19917;-77
2021/12/23 09:44:50;;;;;;;;;;;;;;;-0.59;100.00;101011.44;5007003;28;19920;-76
2021/12/23 09:47:16;;;;;;;;;;;;;;;-0.59;100.00;101013.13;4989468;28;19917;-75
2021/12/23 09:49:41;;;;;;;;;;;;;;;-0.65;100.00;101021.72;4990989;28;20555;-74
2021/12/23 09:52:07;;;;;;;;;;;;;;;-0.64;100.00;101032.06;4992892;28;19964;-76
2021/12/23 09:54:35;;;;;;;;;;;;;;;-0.52;99.79;101027.78;4990179;28;20254;-77
2021/12/23 09:57:01;;;;;;;;;;;;;;;-0.52;99.57;101031.22;4989134;28;19937;-74
2021/12/23 09:59:27;;;;;;;;;;;;;;;-0.54;99.73;101040.69;4991842;28;20374;-76
2021/12/23 10:01:53;;;;;;;;;;;;;;;-0.53;99.69;101029.50;4989333;28;20000;-76
2021/12/23 10:04:18;;;;;;;;;;;;;;;-0.57;99.55;101026.91;4987507;28;20399;-75
2021/12/23 10:06:43;;;;;;;;;;;;;;;-0.54;99.40;101038.09;4989229;28;19913;-75
2021/12/23 10:09:09;;;;;;;;;;;;;;;-0.52;100.00;101036.38;4988550;28;20298;-75
2021/12/23 10:30:56;;;;;;;;;;;;;;;-0.53;99.89;101008.84;4972432;28;19918;-76
2021/12/23 10:38:58;;;;;;;;;;;;;;;-0.44;99.33;101008.00;4993227;28;19924;-75
2021/12/23 10:41:25;;;;;;;;;;;;;;;-0.48;99.55;100999.41;4986166;28;19972;-74
2021/12/23 10:44:06;;;;;;;;;;;;;;;-0.41;99.93;100986.50;4985243;28;19979;-75
2021/12/23 10:46:33;;;;;;;;;;;;;;;-0.36;99.69;100972.75;4981173;28;19914;-77
2021/12/23 11:00:13;;;;;;;;;;;;;;;-0.27;99.82;100960.69;4986046;28;20383;-76
2021/12/23 11:02:40;;;;;;;;;;;;;;;-0.21;99.30;100956.38;4991138;28;19913;-76
2021/12/23 11:07:57;;;;;;;;;;;;;;;-0.15;99.01;100950.34;4979722;28;19922;-76
2021/12/23 11:10:41;;;;;;;;;;;;;;;-0.04;99.20;100960.69;4985296;28;20378;-76
2021/12/23 11:37:54;;;;;;;;;;;;;;;0.46;98.29;100900.25;4985581;28;19926;-78
2021/12/23 11:45:56;;;;;;;;;;;;;;;0.52;98.45;100901.13;4983256;28;19913;-78
2021/12/23 11:48:22;;;;;;;;;;;;;;;0.51;98.43;100887.31;4992489;28;20299;-77
2021/12/23 11:53:27;;;;;;;;;;;;;;;0.61;98.18;100855.38;4989900;28;20334;-78
2021/12/23 11:55:54;;;;;;;;;;;;;;;0.58;98.21;100851.97;4994992;28;19968;-79
2021/12/23 11:58:34;;;;;;;;;;;;;;;0.69;98.29;100837.25;4999812;28;19914;-78
2021/12/23 12:01:15;;;;;;;;;;;;;;;0.72;98.48;100842.41;4984729;28;19917;-78
2021/12/23 12:03:56;;;;;;;;;;;;;;;0.79;98.34;100827.72;4987426;28;19918;-78
2021/12/23 12:06:23;;;;;;;;;;;;;;;0.84;97.95;100807.00;4982242;28;19925;-78
2021/12/23 12:08:51;;;;;;;;;;;;;;;0.96;97.63;100793.09;4994920;28;20004;-79
2021/12/23 12:11:32;;;;;;;;;;;;;;;1.06;97.28;100789.56;4995581;28;19918;-78
2021/12/23 12:13:57;;;;;;;;;;;;;;;1.06;97.33;100800.78;5001402;28;19913;-78
2021/12/23 12:16:25;;;;;;;;;;;;;;;1.12;97.47;100799.88;4994839;28;19964;-79
2021/12/23 12:18:50;;;;;;;;;;;;;;;1.18;97.00;100796.38;4996221;28;19914;-78
2021/12/23 12:21:31;;;;;;;;;;;;;;;1.13;97.11;100785.19;4994952;28;20001;-80
2021/12/23 12:24:11;;;;;;;;;;;;;;;1.15;97.36;100779.16;4993706;28;19918;-80
2021/12/23 12:26:50;;;;;;;;;;;;;;;1.16;97.39;100767.91;4994711;28;19922;-78
2021/12/23 12:29:18;;;;;;;;;;;;;;;1.13;97.50;100761.91;4993750;28;19959;-79
2021/12/23 12:31:44;;;;;;;;;;;;;;;1.18;97.56;100765.31;4996682;28;19957;-78
2021/12/23 12:34:10;;;;;;;;;;;;;;;1.22;97.51;100769.59;4992783;28;19913;-81
2021/12/23 12:36:51;;;;;;;;;;;;;;;1.28;97.34;100771.25;4975961;28;20428;-80
2021/12/23 12:39:31;;;;;;;;;;;;;;;1.34;96.94;100766.03;4971979;28;20378;-79
2021/12/23 12:45:01;;;;;;;;;;;;;;;1.26;97.45;100763.50;4994268;28;19914;-79
2021/12/23 12:47:31;;;;;;;;;;;;;;;1.30;97.98;100760.03;4987027;28;19973;-78
2021/12/23 12:50:11;;;;;;;;;;;;;;;1.27;97.96;100760.06;4995165;28;20367;-78
2021/12/23 12:52:38;;;;;;;;;;;;;;;1.25;98.23;100759.22;4985228;28;20012;-79
2021/12/23 12:55:22;;;;;;;;;;;;;;;1.23;97.84;100764.41;5000315;28;20362;-78
2021/12/23 12:57:49;;;;;;;;;;;;;;;1.32;98.05;100760.00;4992306;28;19953;-78
2021/12/23 13:00:32;;;;;;;;;;;;;;;1.38;98.36;100758.22;4989220;28;19952;-81
2021/12/23 13:02:58;;;;;;;;;;;;;;;1.40;97.76;100763.38;4987398;28;19953;-77
2021/12/23 13:05:38;;;;;;;;;;;;;;;1.47;97.71;100764.19;4992168;28;20004;-80
2021/12/23 13:08:19;;;;;;;;;;;;;;;1.53;97.51;100752.03;4994772;28;20440;-77
2021/12/23 13:10:48;;;;;;;;;;;;;;;1.58;97.76;100757.16;4988613;28;19948;-80
2021/12/23 13:13:33;;;;;;;;;;;;;;;1.65;97.66;100747.59;4993348;28;19949;-76
2021/12/23 13:16:14;;;;;;;;;;;;;;;1.70;97.41;100746.66;4992139;28;19951;-78
2021/12/23 13:18:39;;;;;;;;;;;;;;;1.79;97.72;100740.53;4980802;28;19950;-77
2021/12/23 13:21:06;;;;;;;;;;;;;;;1.78;97.19;100732.75;4990732;28;20015;-78
2021/12/23 13:23:47;;;;;;;;;;;;;;;1.81;97.03;100724.94;4987359;28;19954;-79
2021/12/23 13:26:27;;;;;;;;;;;;;;;1.84;97.20;100719.75;4989968;28;19984;-78
2021/12/23 13:28:56;;;;;;;;;;;;;;;1.88;97.35;100721.38;5008670;28;20052;-78
2021/12/23 13:31:37;;;;;;;;;;;;;;;1.93;96.95;100719.63;4993561;28;19998;-78
2021/12/23 13:34:18;;;;;;;;;;;;;;;1.97;96.79;100729.06;4993987;28;19954;-78
2021/12/23 13:36:45;;;;;;;;;;;;;;;2.37;96.35;100717.25;4988910;28;19951;-77
2021/12/23 13:39:12;;;;;;;;;;;;;;;2.15;95.51;100708.97;4985952;28;20037;-73
2021/12/23 13:44:36;;;;;;;;;;;;;;;2.03;96.57;100698.75;4992437;28;19947;-78
2021/12/23 13:47:17;;;;;;;;;;;;;;;2.00;96.75;100697.06;4991525;28;20306;-75
2021/12/23 13:49:46;;;;;;;;;;;;;;;1.98;97.38;100684.16;4955997;28;19963;-74
2021/12/23 13:52:26;;;;;;;;;;;;;;;1.98;97.14;100691.06;4969654;28;19965;-80
2021/12/23 13:54:53;;;;;;;;;;;;;;;1.99;97.65;100678.06;4981646;28;19985;-77
2021/12/23 13:57:20;;;;;;;;;;;;;;;2.03;97.95;100681.50;4986707;28;19997;-74
2021/12/23 13:59:47;;;;;;;;;;;;;;;2.49;96.94;100687.72;4976204;28;19950;-77
2021/12/23 14:02:28;;;;;;;;;;;;;;;2.34;97.01;100690.53;4969734;28;19956;-75
2021/12/23 14:05:08;;;;;;;;;;;;;;;2.20;97.38;100699.41;4974650;28;20001;-77
2021/12/23 14:07:37;;;;;;;;;;;;;;;2.15;98.18;100702.03;4971110;28;20325;-75
2021/12/23 14:10:18;;;;;;;;;;;;;;;2.17;98.48;100700.28;4954571;28;19959;-75
2021/12/23 14:12:43;;;;;;;;;;;;;;;2.20;98.82;100680.38;4974365;28;19948;-76